Time;durP1;ratioP1;P1;durP2;ratioP2;P2;SDS_P1;SDS_P2;PMS_P1;PMS_P2;Temp;Humidity;BMP_temperature;BMP_pressure;BME280_temperature;BME280_humidity;BME280_pressure;Samples;Min_cycle;Max_cycle;Signal;HPM_P1;HPM_P2
2024/04/10 00:01:09;;;;;;;1.40;1.10;;;7.80;80.30;;;;;;5279392;27;20319;-71
2024/04/10 00:03:35;;;;;;;2.33;1.37;;;7.80;95.90;;;;;;5279398;27;20225;-71
2024/04/10 00:06:05;;;;;;;2.50;1.30;;;7.70;99.90;;;;;;5279301;27;20765;-71
2024/04/10 00:08:32;;;;;;;1.73;1.30;;;7.70;99.90;;;;;;5279319;27;20237;-71
2024/04/10 00:11:01;;;;;;;3.47;1.40;;;7.60;99.90;;;;;;5279489;27;20268;-71
2024/04/10 00:13:28;;;;;;;1.67;1.13;;;7.60;99.90;;;;;;5279113;27;20226;-71
2024/04/10 00:16:00;;;;;;;3.73;1.40;;;7.60;99.90;;;;;;5279345;27;20593;-71
2024/04/10 00:18:29;;;;;;;1.60;1.50;;;7.50;99.90;;;;;;5279226;27;20238;-71
2024/04/10 00:20:59;;;;;;;2.37;1.50;;;7.60;99.90;;;;;;5279159;27;20280;-71
2024/04/10 00:23:25;;;;;;;4.10;1.47;;;7.60;99.90;;;;;;5278917;27;20229;-71
2024/04/10 00:25:57;;;;;;;2.50;1.60;;;7.70;99.90;;;;;;5279565;27;20636;-71
2024/04/10 00:28:23;;;;;;;1.60;1.40;;;7.60;99.90;;;;;;5279030;27;20237;-70
2024/04/10 00:30:52;;;;;;;3.37;1.53;;;7.50;99.90;;;;;;5279117;27;20280;-70
2024/04/10 00:33:18;;;;;;;2.57;1.47;;;7.50;99.90;;;;;;5278716;27;20225;-71
2024/04/10 00:35:59;;;;;;;1.53;1.43;;;7.40;99.90;;;;;;5278766;27;20269;-71
2024/04/10 00:38:27;;;;;;;2.23;1.73;;;7.30;99.90;;;;;;5278715;27;20592;-72
2024/04/10 00:40:57;;;;;;;2.07;1.23;;;7.30;99.90;;;;;;5278124;27;20276;-71
2024/04/10 00:43:22;;;;;;;1.97;1.50;;;7.20;99.90;;;;;;5278640;27;20775;-71
2024/04/10 00:45:56;;;;;;;2.60;1.30;;;7.20;99.90;;;;;;5278603;27;20225;-71
2024/04/10 00:48:23;;;;;;;3.87;1.40;;;7.20;99.90;;;;;;5278567;27;20258;-71
2024/04/10 00:50:51;;;;;;;3.53;1.60;;;7.20;99.90;;;;;;5280579;27;20237;-71
2024/04/10 00:53:20;;;;;;;3.13;1.43;;;7.20;99.90;;;;;;5278897;27;20561;-71
2024/04/10 00:55:50;;;;;;;2.13;1.40;;;7.10;99.90;;;;;;5278478;27;20229;-71
2024/04/10 00:58:16;;;;;;;1.70;1.60;;;7.00;99.90;;;;;;5278209;27;20622;-70
2024/04/10 01:00:45;;;;;;;2.63;1.70;;;7.00;99.90;;;;;;5278373;27;20267;-71
2024/04/10 01:03:11;;;;;;;2.80;1.60;;;6.90;99.90;;;;;;5278186;27;20265;-71
2024/04/10 01:05:40;;;;;;;3.37;1.50;;;6.90;99.90;;;;;;5278142;27;20335;-71
2024/04/10 01:08:06;;;;;;;2.90;1.60;;;6.80;99.90;;;;;;5278171;27;20238;-71
2024/04/10 01:10:38;;;;;;;2.90;1.60;;;6.80;99.90;;;;;;5278093;27;20635;-71
2024/04/10 01:13:06;;;;;;;1.83;1.70;;;6.80;99.90;;;;;;5278228;27;20785;-70
2024/04/10 01:15:34;;;;;;;1.87;1.67;;;6.90;99.90;;;;;;5278174;27;20676;-71
2024/04/10 01:18:01;;;;;;;2.23;1.50;;;6.90;99.90;;;;;;5277943;27;20238;-71
2024/04/10 01:20:30;;;;;;;1.57;1.40;;;6.80;99.90;;;;;;5278227;27;20287;-70
2024/04/10 01:23:01;;;;;;;4.43;1.50;;;6.70;99.90;;;;;;5277950;27;20729;-71
2024/04/10 01:25:30;;;;;;;1.37;1.27;;;6.60;99.90;;;;;;5277913;27;20715;-71
2024/04/10 01:27:56;;;;;;;2.27;2.00;;;6.60;99.90;;;;;;5277887;27;20238;-72
2024/04/10 01:30:25;;;;;;;2.10;1.60;;;6.60;99.90;;;;;;5277927;27;20222;-72
2024/04/10 01:32:51;;;;;;;1.77;1.50;;;6.60;99.90;;;;;;5278391;27;20222;-72
2024/04/10 01:35:19;;;;;;;2.90;1.90;;;6.70;99.90;;;;;;5277948;27;20233;-72
2024/04/10 01:37:45;;;;;;;1.97;1.77;;;6.70;99.90;;;;;;5278145;27;20578;-71
2024/04/10 01:40:17;;;;;;;3.23;1.97;;;6.80;99.90;;;;;;5277609;27;20272;-71
2024/04/10 01:42:44;;;;;;;4.03;1.63;;;6.80;99.90;;;;;;5277663;27;20252;-71
2024/04/10 01:45:12;;;;;;;3.37;2.00;;;6.80;99.90;;;;;;5277991;27;20234;-71
2024/04/10 01:47:39;;;;;;;3.37;1.67;;;6.80;99.90;;;;;;5277623;27;20230;-71
2024/04/10 01:50:08;;;;;;;1.50;1.40;;;6.80;99.90;;;;;;5278094;27;20277;-71
2024/04/10 01:52:34;;;;;;;1.70;1.40;;;6.70;99.90;;;;;;5281051;27;20222;-69
2024/04/10 01:55:03;;;;;;;3.07;1.70;;;6.70;99.90;;;;;;5280964;27;20281;-69
2024/04/10 01:57:31;;;;;;;3.33;1.70;;;6.70;99.90;;;;;;5280733;27;20242;-69
2024/04/10 02:00:00;;;;;;;2.80;1.60;;;6.60;99.90;;;;;;5280761;27;20698;-69
2024/04/10 02:02:26;;;;;;;1.67;1.57;;;6.70;99.90;;;;;;5280977;27;20237;-69
2024/04/10 02:04:54;;;;;;;2.20;1.40;;;6.70;99.90;;;;;;5280606;27;20345;-69
2024/04/10 02:07:20;;;;;;;2.07;1.60;;;6.80;99.90;;;;;;5281002;27;20225;-69
2024/04/10 02:09:48;;;;;;;2.37;1.27;;;6.70;99.90;;;;;;5280582;27;20641;-69
2024/04/10 02:12:14;;;;;;;4.07;1.50;;;6.70;99.90;;;;;;5280917;27;20233;-69
2024/04/10 02:14:45;;;;;;;1.47;1.27;;;6.60;99.90;;;;;;5280838;27;20221;-69
2024/04/10 02:17:11;;;;;;;4.13;1.43;;;6.50;99.90;;;;;;5280831;27;20719;-68
2024/04/10 02:19:40;;;;;;;2.00;1.57;;;6.50;99.90;;;;;;5304797;21;20273;-68
2024/04/10 02:22:06;;;;;;;4.43;1.50;;;6.40;99.90;;;;;;5281233;27;20260;-67
2024/04/10 02:24:35;;;;;;;2.40;1.67;;;6.40;99.90;;;;;;5280980;27;20230;-67
2024/04/10 02:27:00;;;;;;;2.87;1.57;;;6.40;99.90;;;;;;5281043;27;20226;-67
2024/04/10 02:29:30;;;;;;;2.43;1.43;;;6.30;99.90;;;;;;5280792;27;20672;-67
2024/04/10 02:31:59;;;;;;;1.53;1.30;;;6.40;99.90;;;;;;5281743;27;20230;-67
2024/04/10 02:34:28;;;;;;;3.60;1.60;;;6.40;99.90;;;;;;5280843;27;20217;-68
2024/04/10 02:36:54;;;;;;;4.97;1.43;;;6.40;99.90;;;;;;5282371;27;20714;-68
2024/04/10 02:39:22;;;;;;;7.40;1.40;;;6.40;99.90;;;;;;5282252;27;20260;-67
2024/04/10 02:41:49;;;;;;;3.80;1.33;;;6.40;99.90;;;;;;5280910;27;20230;-66
2024/04/10 02:44:17;;;;;;;1.63;1.20;;;6.50;99.90;;;;;;5280819;27;20251;-67
2024/04/10 02:46:43;;;;;;;4.63;1.57;;;6.50;99.90;;;;;;5280911;27;20238;-67
2024/04/10 02:49:14;;;;;;;2.77;1.30;;;6.50;99.90;;;;;;5280695;27;20256;-67
2024/04/10 02:51:40;;;;;;;3.43;1.73;;;6.50;99.90;;;;;;5281724;27;20582;-68
2024/04/10 02:54:09;;;;;;;5.33;1.83;;;6.50;99.90;;;;;;5281321;27;20265;-67
2024/04/10 02:56:34;;;;;;;5.60;1.40;;;6.60;92.10;;;;;;5280688;27;20260;-66
2024/04/10 02:59:03;;;;;;;5.10;1.67;;;6.60;85.40;;;;;;5280241;27;20229;-66
2024/04/10 03:01:29;;;;;;;1.97;1.23;;;6.60;88.00;;;;;;5280031;27;20225;-66
2024/04/10 03:03:57;;;;;;;8.93;1.73;;;6.60;90.10;;;;;;5279603;27;20256;-67
2024/04/10 03:06:26;;;;;;;2.30;1.20;;;6.60;90.10;;;;;;5280700;27;20268;-67
2024/04/10 03:08:54;;;;;;;4.57;1.67;;;6.50;92.60;;;;;;5280348;27;20250;-66
2024/04/10 03:11:20;;;;;;;4.37;1.73;;;6.50;95.00;;;;;;5280245;27;20225;-66
2024/04/10 03:13:49;;;;;;;5.73;1.33;;;6.50;96.30;;;;;;5280208;27;20263;-68
2024/04/10 03:16:15;;;;;;;1.93;1.27;;;6.50;97.50;;;;;;5280228;27;20225;-67
2024/04/10 03:18:43;;;;;;;2.83;1.43;;;6.40;96.30;;;;;;5280024;27;20245;-67
2024/04/10 03:21:09;;;;;;;3.60;1.60;;;6.50;95.10;;;;;;5280062;27;20640;-67
2024/04/10 03:23:40;;;;;;;4.27;1.37;;;6.40;94.30;;;;;;5279967;27;20260;-67
2024/04/10 03:26:08;;;;;;;5.27;1.77;;;6.40;93.20;;;;;;5280072;27;20264;-67
2024/04/10 03:28:36;;;;;;;4.00;1.37;;;6.40;92.40;;;;;;5279832;27;20332;-66
2024/04/10 03:31:05;;;;;;;3.60;1.50;;;6.30;91.50;;;;;;5280754;27;20268;-67
2024/04/10 03:33:34;;;;;;;2.90;1.30;;;6.30;93.60;;;;;;5280247;27;20230;-66
2024/04/10 03:36:00;;;;;;;3.13;1.50;;;6.30;95.10;;;;;;5279686;27;20322;-66
2024/04/10 03:38:28;;;;;;;6.57;2.27;;;6.40;93.40;;;;;;5280057;27;20285;-66
2024/04/10 03:40:57;;;;;;;2.13;1.00;;;6.40;90.70;;;;;;5279991;27;20222;-66
2024/04/10 03:43:25;;;;;;;3.47;1.43;;;6.40;88.30;;;;;;5279874;27;20346;-66
2024/04/10 03:45:55;;;;;;;4.27;1.60;;;6.40;86.50;;;;;;5279920;27;20299;-67
2024/04/10 03:48:25;;;;;;;5.03;1.10;;;6.40;91.30;;;;;;5279893;27;20749;-67
2024/04/10 03:51:00;;;;;;;2.30;1.30;;;6.40;96.60;;;;;;5279814;27;20348;-67
2024/04/10 03:53:29;;;;;;;4.67;1.40;;;6.40;99.90;;;;;;5280975;27;20288;-67
2024/04/10 03:55:58;;;;;;;3.20;1.30;;;6.40;99.90;;;;;;5279665;27;20225;-68
2024/04/10 03:58:26;;;;;;;3.30;1.33;;;6.40;99.90;;;;;;5279578;27;20233;-67
2024/04/10 04:00:52;;;;;;;3.40;1.17;;;6.40;99.90;;;;;;5281561;27;20272;-68
2024/04/10 04:03:21;;;;;;;1.90;1.20;;;6.40;99.90;;;;;;5279674;27;20233;-67
2024/04/10 04:05:47;;;;;;;6.23;2.50;;;6.50;99.90;;;;;;5279601;27;20230;-67
2024/04/10 04:08:15;;;;;;;2.60;1.53;;;6.60;91.90;;;;;;5279383;27;20267;-67
2024/04/10 04:10:43;;;;;;;3.20;1.33;;;6.60;86.90;;;;;;5279538;27;20226;-67
2024/04/10 04:13:15;;;;;;;3.93;1.27;;;6.60;90.10;;;;;;5278967;27;20233;-67
2024/04/10 04:15:41;;;;;;;4.40;1.90;;;6.60;96.00;;;;;;5278640;27;20222;-67
2024/04/10 04:18:09;;;;;;;3.80;1.60;;;6.60;99.90;;;;;;5279412;27;20245;-67
2024/04/10 04:20:36;;;;;;;5.17;1.60;;;6.60;99.90;;;;;;5279606;27;20260;-67
2024/04/10 04:23:05;;;;;;;5.00;1.30;;;6.60;99.90;;;;;;5281322;27;20710;-68
2024/04/10 04:25:32;;;;;;;3.40;1.47;;;6.60;99.90;;;;;;5279523;27;20229;-69
2024/04/10 04:28:00;;;;;;;5.73;1.50;;;6.70;99.90;;;;;;5280499;27;20217;-68
2024/04/10 04:30:29;;;;;;;5.27;2.27;;;6.70;99.90;;;;;;5279381;27;20549;-67
2024/04/10 04:32:59;;;;;;;5.13;1.30;;;6.70;92.50;;;;;;5279097;27;20226;-67
2024/04/10 04:37:23;;;;;;;3.77;1.70;;;6.70;90.00;;;;;;5509474;25;20578;-66
2024/04/10 04:39:49;;;;;;;7.90;1.70;;;6.80;99.90;;;;;;5510530;25;20630;-66
2024/04/10 04:42:18;;;;;;;4.67;2.13;;;6.80;99.90;;;;;;5510995;25;20219;-67
2024/04/10 04:44:44;;;;;;;3.50;1.90;;;6.80;99.90;;;;;;5510141;25;20754;-66
2024/04/10 04:47:12;;;;;;;6.27;3.27;;;6.80;99.90;;;;;;5509586;25;20315;-67
2024/04/10 04:49:38;;;;;;;5.00;3.03;;;6.80;99.90;;;;;;5511531;26;20230;-67
2024/04/10 04:52:07;;;;;;;3.87;2.00;;;6.80;99.90;;;;;;5510025;25;20265;-69
2024/04/10 04:54:36;;;;;;;2.43;1.50;;;6.80;99.90;;;;;;5512407;25;20218;-69
2024/04/10 04:57:09;;;;;;;4.80;1.90;;;6.80;99.90;;;;;;5508792;25;20218;-68
2024/04/10 04:59:34;;;;;;;2.33;1.20;;;6.80;99.90;;;;;;5508818;25;20295;-67
2024/04/10 05:02:03;;;;;;;2.23;1.50;;;6.80;99.90;;;;;;5508915;25;20564;-69
2024/04/10 05:07:16;;;;;;;5.03;1.50;;;6.70;99.90;;;;;;5511722;26;20202;-67
2024/04/10 05:09:53;;;;;;;2.10;1.50;;;6.80;99.90;;;;;;5508882;25;20324;-67
2024/04/10 05:12:19;;;;;;;4.07;2.00;;;6.80;99.90;;;;;;5509401;26;20207;-67
2024/04/10 05:14:50;;;;;;;2.77;1.40;;;6.70;99.90;;;;;;5508940;25;20291;-68
2024/04/10 05:17:16;;;;;;;2.17;1.50;;;6.70;99.90;;;;;;5510055;25;20245;-69
2024/04/10 05:19:45;;;;;;;2.43;1.70;;;6.80;99.90;;;;;;5509253;25;20223;-67
2024/04/10 05:22:14;;;;;;;4.37;2.03;;;6.90;98.40;;;;;;5508505;25;20231;-67
2024/04/10 05:24:40;;;;;;;2.07;1.70;;;6.90;94.60;;;;;;5508328;25;20257;-67
2024/04/10 05:27:12;;;;;;;7.23;2.70;;;6.90;91.50;;;;;;5508387;25;20709;-66
2024/04/10 05:29:38;;;;;;;6.17;2.40;;;7.00;91.30;;;;;;5508568;25;20257;-66
2024/04/10 05:32:07;;;;;;;9.07;3.63;;;7.00;90.00;;;;;;5508925;25;20226;-66
2024/04/10 05:34:33;;;;;;;6.70;2.87;;;7.10;83.90;;;;;;5509069;25;20227;-66
2024/04/10 05:37:03;;;;;;;5.97;3.47;;;7.20;68.00;;;;;;5542206;25;20283;-68
2024/04/10 05:39:28;;;;;;;5.70;2.40;;;7.30;61.60;;;;;;5545782;25;20233;-68
2024/04/10 05:42:04;;;;;;;3.37;1.90;;;7.40;46.30;;;;;;5546078;25;20251;-67
2024/04/10 05:44:33;;;;;;;3.77;1.40;;;7.40;22.80;;;;;;5545363;25;20568;-67
2024/04/10 05:47:01;;;;;;;7.70;2.50;;;7.50;18.20;;;;;;5538197;25;20223;-68
2024/04/10 05:49:29;;;;;;;6.90;1.70;;;7.60;9.00;;;;;;5529360;26;20230;-67
2024/04/10 05:51:57;;;;;;;4.70;2.10;;;7.60;20.00;;;;;;5529282;26;20377;-67
2024/04/10 05:54:24;;;;;;;6.60;2.00;;;7.70;10.60;;;;;;5529539;26;20558;-67
2024/04/10 05:56:52;;;;;;;12.43;2.43;;;7.80;5.10;;;;;;5529595;26;20214;-67
2024/04/10 05:59:18;;;;;;;3.83;1.90;;;7.80;1.00;;;;;;5529238;26;20261;-67
2024/04/10 06:01:49;;;;;;;7.13;2.33;;;7.80;1.00;;;;;;5529397;26;20725;-67
2024/04/10 06:04:15;;;;;;;5.77;2.40;;;7.90;1.00;;;;;;5529225;26;20753;-68
2024/04/10 06:06:44;;;;;;;5.70;1.93;;;8.00;1.00;;;;;;5528971;26;20221;-67
2024/04/10 06:09:09;;;;;;;4.57;1.50;;;8.10;1.00;;;;;;5531475;26;20261;-65
2024/04/10 06:11:38;;;;;;;3.03;1.27;;;8.00;1.00;;;;;;5529691;26;20214;-65
2024/04/10 06:14:04;;;;;;;4.73;2.30;;;8.00;1.00;;;;;;5530370;26;20218;-66
2024/04/10 06:16:32;;;;;;;5.47;1.70;;;7.90;1.00;;;;;;5528871;26;20222;-65
2024/04/10 06:19:01;;;;;;;3.93;1.40;;;7.90;1.00;;;;;;5528777;26;20226;-65
2024/04/10 06:21:29;;;;;;;1.37;1.03;;;7.80;1.00;;;;;;5528795;26;20270;-65
2024/04/10 06:23:55;;;;;;;5.53;1.43;;;7.80;1.00;;;;;;5528846;26;20222;-65
2024/04/10 06:26:23;;;;;;;6.10;1.93;;;7.70;1.00;;;;;;5528755;26;20218;-66
2024/04/10 06:28:49;;;;;;;4.87;1.37;;;7.80;1.00;;;;;;5528623;26;20272;-65
2024/04/10 06:31:18;;;;;;;5.43;1.43;;;7.70;1.00;;;;;;5528958;26;20223;-65
2024/04/10 06:33:44;;;;;;;7.00;1.97;;;7.70;1.00;;;;;;5528666;26;20218;-65
2024/04/10 06:36:15;;;;;;;5.93;1.53;;;7.80;1.00;;;;;;5528745;26;20730;-65
2024/04/10 06:38:41;;;;;;;6.17;1.70;;;7.80;1.00;;;;;;5528779;26;20226;-65
2024/04/10 06:41:09;;;;;;;3.37;1.50;;;7.80;1.00;;;;;;5528595;26;20281;-65
2024/04/10 06:43:35;;;;;;;3.70;1.37;;;7.90;1.00;;;;;;5528327;26;20253;-65
2024/04/10 06:46:07;;;;;;;5.37;1.60;;;8.00;1.00;;;;;;5528331;26;20278;-65
2024/04/10 06:48:34;;;;;;;4.10;1.87;;;8.00;1.00;;;;;;5528160;26;20257;-67
2024/04/10 06:51:04;;;;;;;4.10;1.40;;;7.90;1.00;;;;;;5528394;26;20226;-69
2024/04/10 06:53:33;;;;;;;4.70;1.67;;;7.90;1.00;;;;;;5528688;26;20218;-66
2024/04/10 06:56:04;;;;;;;5.17;1.80;;;8.10;1.00;;;;;;5528378;26;20237;-66
2024/04/10 06:58:31;;;;;;;6.80;2.03;;;8.10;1.00;;;;;;5528154;26;20242;-68
2024/04/10 07:01:00;;;;;;;8.40;1.90;;;8.30;1.00;;;;;;5528497;26;20219;-67
2024/04/10 07:03:27;;;;;;;3.83;1.37;;;8.50;1.00;;;;;;5528278;26;20219;-67
2024/04/10 07:06:04;;;;;;;5.90;1.40;;;8.50;1.00;;;;;;5528336;26;20333;-67
2024/04/10 07:08:36;;;;;;;8.80;1.43;;;8.40;1.00;;;;;;5528243;26;20273;-67
2024/04/10 07:11:04;;;;;;;4.00;1.53;;;8.40;99.90;;;;;;5528228;26;20241;-67
2024/04/10 07:13:32;;;;;;;5.60;1.80;;;8.50;1.00;;;;;;5528115;26;20222;-66
2024/04/10 07:15:59;;;;;;;3.47;1.47;;;8.40;99.90;;;;;;5527994;26;20218;-67
2024/04/10 07:18:29;;;;;;;8.33;2.00;;;8.40;1.00;;;;;;5527901;26;20230;-66
2024/04/10 07:20:59;;;;;;;6.30;1.70;;;8.60;1.00;;;;;;5527832;26;20214;-67
2024/04/10 07:23:28;;;;;;;4.20;2.30;;;8.50;99.90;;;;;;5527890;26;20222;-67
2024/04/10 07:26:07;;;;;;;5.70;1.97;;;8.60;99.90;;;;;;5527843;26;20557;-67
2024/04/10 07:28:36;;;;;;;5.67;1.37;;;8.60;99.90;;;;;;5528224;26;20249;-67
2024/04/10 07:31:02;;;;;;;4.67;1.67;;;8.50;99.90;;;;;;5527776;26;20230;-67
2024/04/10 07:33:30;;;;;;;3.93;1.73;;;8.40;1.00;;;;;;5527845;26;20230;-67
2024/04/10 07:35:56;;;;;;;5.53;2.07;;;8.60;1.00;;;;;;5528367;26;20248;-66
2024/04/10 07:38:25;;;;;;;7.70;1.90;;;8.80;1.00;;;;;;5527850;26;20660;-66
2024/04/10 07:40:56;;;;;;;3.73;1.77;;;8.80;99.90;;;;;;5528005;26;20257;-66
2024/04/10 07:43:25;;;;;;;4.77;1.30;;;8.80;99.90;;;;;;5527832;26;20665;-67
2024/04/10 07:45:50;;;;;;;4.63;1.90;;;8.90;99.90;;;;;;5527614;26;20264;-66
2024/04/10 07:48:19;;;;;;;3.30;1.47;;;8.90;1.00;;;;;;5527726;26;20226;-66
2024/04/10 07:50:45;;;;;;;6.73;2.53;;;8.90;1.00;;;;;;5527596;26;20274;-66
2024/04/10 07:53:13;;;;;;;5.43;2.00;;;9.00;1.00;;;;;;5527408;26;20322;-66
2024/04/10 07:55:39;;;;;;;6.30;2.13;;;9.00;1.00;;;;;;5527442;26;20694;-66
2024/04/10 07:58:10;;;;;;;5.17;1.87;;;9.10;99.90;;;;;;5527281;26;20253;-66
2024/04/10 08:00:36;;;;;;;6.23;2.30;;;9.20;1.00;;;;;;5527536;26;20210;-65
2024/04/10 08:03:05;;;;;;;5.43;2.47;;;9.30;99.90;;;;;;5527209;26;20222;-67
2024/04/10 08:05:31;;;;;;;3.93;2.00;;;9.20;1.00;;;;;;5527094;26;20715;-66
2024/04/10 08:08:00;;;;;;;8.63;2.57;;;9.00;1.00;;;;;;5527122;26;20234;-66
2024/04/10 08:10:26;;;;;;;8.40;2.70;;;9.00;99.90;;;;;;5526359;26;20605;-66
2024/04/10 08:12:55;;;;;;;7.57;2.50;;;9.20;1.00;;;;;;5527399;26;20742;-66
2024/04/10 08:15:24;;;;;;;6.03;2.90;;;9.40;1.00;;;;;;5527233;26;20218;-66
2024/04/10 08:17:53;;;;;;;5.20;2.30;;;9.60;94.90;;;;;;5527272;26;20269;-67
2024/04/10 08:20:19;;;;;;;5.57;2.20;;;9.60;99.90;;;;;;5532687;21;20304;-65
2024/04/10 08:22:47;;;;;;;5.27;1.83;;;9.50;1.00;;;;;;5418001;26;20233;-69
2024/04/10 08:25:13;;;;;;;6.10;2.13;;;9.50;99.90;;;;;;5417633;26;20343;-69
2024/04/10 08:27:42;;;;;;;6.40;2.37;;;9.60;99.90;;;;;;5417600;26;20686;-69
2024/04/10 08:30:08;;;;;;;7.97;2.20;;;9.50;1.00;;;;;;5418023;26;20221;-69
2024/04/10 08:32:39;;;;;;;3.80;1.80;;;9.30;1.00;;;;;;5417548;26;20291;-69
2024/04/10 08:35:06;;;;;;;4.43;2.23;;;9.40;1.00;;;;;;5417644;26;20213;-69
2024/04/10 08:37:34;;;;;;;3.10;1.80;;;9.50;99.90;;;;;;5417492;26;20218;-69
2024/04/10 08:40:00;;;;;;;5.33;2.27;;;9.60;1.00;;;;;;5414919;26;20248;-67
2024/04/10 08:42:30;;;;;;;6.13;1.97;;;9.60;99.90;;;;;;5414210;26;20233;-67
2024/04/10 08:44:58;;;;;;;6.77;2.17;;;9.70;99.90;;;;;;5417032;26;20294;-67
2024/04/10 08:47:28;;;;;;;8.37;2.30;;;9.50;1.00;;;;;;5417307;26;20279;-67
2024/04/10 08:49:59;;;;;;;4.10;2.37;;;9.30;1.00;;;;;;5417236;26;20260;-67
2024/04/10 08:52:30;;;;;;;7.10;2.10;;;9.40;99.90;;;;;;5417217;26;20321;-68
2024/04/10 08:54:56;;;;;;;7.97;2.47;;;9.60;28.40;;;;;;5417337;26;20245;-68
2024/04/10 08:57:24;;;;;;;5.17;2.27;;;9.70;99.90;;;;;;5417209;26;20225;-68
2024/04/10 08:59:50;;;;;;;6.27;2.20;;;9.90;99.90;;;;;;5417112;26;20226;-68
2024/04/10 09:02:19;;;;;;;8.70;2.63;;;10.30;99.90;;;;;;5417154;26;20260;-68
2024/04/10 09:04:45;;;;;;;7.17;1.90;;;10.20;1.00;;;;;;5417045;26;20226;-68
2024/04/10 09:07:20;;;;;;;7.33;2.53;;;10.20;1.00;;;;;;5416905;26;20228;-68
2024/04/10 09:09:49;;;;;;;6.20;1.83;;;10.50;1.00;;;;;;5417610;26;20290;-68
2024/04/10 09:12:24;;;;;;;4.43;1.83;;;10.60;32.30;;;;;;5417405;26;20760;-68
2024/04/10 09:14:50;;;;;;;3.80;2.50;;;10.30;99.90;;;;;;5416944;26;20617;-68
2024/04/10 09:17:20;;;;;;;5.63;2.60;;;10.50;1.00;;;;;;5416935;26;20229;-68
2024/04/10 09:19:46;;;;;;;4.87;1.97;;;10.50;1.00;;;;;;5416906;26;20753;-68
2024/04/10 09:22:17;;;;;;;5.43;2.33;;;10.70;99.90;;;;;;5417923;26;20237;-68
2024/04/10 09:24:43;;;;;;;6.10;2.03;;;11.10;99.90;;;;;;5420639;26;20339;-68
2024/04/10 09:27:12;;;;;;;6.60;1.87;;;11.10;35.60;;;;;;5420710;26;20633;-68
2024/04/10 09:29:38;;;;;;;4.13;2.03;;;10.50;99.90;;;;;;5420403;26;20225;-68
2024/04/10 09:32:10;;;;;;;3.60;2.20;;;10.50;99.90;;;;;;5420731;26;20357;-68
2024/04/10 09:34:37;;;;;;;7.17;2.30;;;10.70;36.60;;;;;;5420512;26;20282;-68
2024/04/10 09:37:08;;;;;;;7.23;2.30;;;10.70;1.00;;;;;;5420477;26;20284;-68
2024/04/10 09:39:37;;;;;;;5.00;1.77;;;11.00;1.00;;;;;;5420216;26;20659;-68
2024/04/10 09:42:14;;;;;;;5.47;2.00;;;11.40;1.00;;;;;;5420356;26;20237;-68
2024/04/10 09:44:42;;;;;;;5.13;2.20;;;11.80;1.00;;;;;;5421785;26;20600;-67
2024/04/10 09:47:12;;;;;;;5.87;1.90;;;11.80;99.90;;;;;;5426854;26;20642;-68
2024/04/10 09:49:41;;;;;;;8.40;2.30;;;11.60;1.00;;;;;;5420231;26;20225;-67
2024/04/10 09:52:13;;;;;;;8.37;2.30;;;12.20;1.00;;;;;;5422821;26;20273;-67
2024/04/10 09:54:42;;;;;;;4.97;2.33;;;12.40;24.70;;;;;;5425611;26;20314;-68
2024/04/10 09:57:12;;;;;;;6.23;2.20;;;12.40;99.90;;;;;;5419962;26;20768;-68
2024/04/10 09:59:39;;;;;;;3.40;1.63;;;12.30;99.90;;;;;;5424663;26;20217;-67
2024/04/10 10:02:11;;;;;;;4.93;1.80;;;12.40;99.90;;;;;;5427548;26;20571;-68
2024/04/10 10:04:37;;;;;;;8.67;2.27;;;12.50;1.00;;;;;;5419892;26;20268;-68
2024/04/10 10:07:06;;;;;;;3.33;1.43;;;12.80;1.00;;;;;;5419721;26;20233;-67
2024/04/10 10:09:32;;;;;;;7.37;1.70;;;12.90;1.00;;;;;;5419896;26;20225;-67
2024/04/10 10:12:04;;;;;;;3.10;1.40;;;12.90;1.00;;;;;;5419596;26;20264;-67
2024/04/10 10:14:30;;;;;;;2.77;1.40;;;11.80;1.00;;;;;;5419748;26;20213;-67
2024/04/10 10:17:08;;;;;;;3.40;1.63;;;11.60;1.00;;;;;;5419272;26;20225;-67
2024/04/10 10:19:35;;;;;;;7.27;1.83;;;11.30;1.00;;;;;;5419179;26;20232;-67
2024/04/10 10:22:04;;;;;;;6.47;2.03;;;11.70;99.90;;;;;;5419776;26;20254;-67
2024/04/10 10:24:30;;;;;;;6.83;1.80;;;12.50;1.00;;;;;;5419727;26;20234;-67
2024/04/10 10:27:05;;;;;;;2.43;1.30;;;13.20;11.30;;;;;;5419202;26;20256;-67
2024/04/10 10:29:31;;;;;;;4.33;1.70;;;14.40;59.90;;;;;;5419469;26;20213;-67
2024/04/10 10:32:07;;;;;;;3.90;1.47;;;15.00;99.90;;;;;;5419342;26;20268;-67
2024/04/10 10:34:33;;;;;;;6.57;1.60;;;15.30;99.90;;;;;;5418457;26;20258;-67
2024/04/10 10:37:06;;;;;;;7.30;1.80;;;15.30;99.90;;;;;;5419204;26;20267;-67
2024/04/10 10:39:32;;;;;;;3.25;1.48;;;14.80;99.90;;;;;;5419010;26;20260;-67
2024/04/10 10:42:07;;;;;;;7.40;1.60;;;14.70;99.90;;;;;;5419147;26;20814;-67
2024/04/10 10:44:33;;;;;;;3.72;1.40;;;14.50;99.90;;;;;;5419105;26;20709;-67
2024/04/10 10:47:02;;;;;;;5.18;1.50;;;14.70;99.90;;;;;;5418997;26;20256;-67
2024/04/10 10:49:28;;;;;;;3.00;1.42;;;14.20;98.70;;;;;;5419027;26;20606;-67
2024/04/10 10:51:57;;;;;;;2.50;1.08;;;14.20;99.90;;;;;;5418976;26;20234;-67
2024/04/10 10:54:23;;;;;;;3.42;1.63;;;14.20;99.90;;;;;;5419151;26;20221;-67
2024/04/10 10:56:52;;;;;;;3.00;1.60;;;14.10;99.90;;;;;;5419098;26;20226;-67
2024/04/10 10:59:25;;;;;;;4.30;1.67;;;13.80;97.80;;;;;;5419167;26;20225;-67
2024/04/10 11:01:53;;;;;;;4.77;1.70;;;13.90;99.90;;;;;;5419042;26;20749;-67
2024/04/10 11:04:20;;;;;;;3.22;1.73;;;15.00;99.90;;;;;;5419085;26;20260;-67
2024/04/10 11:06:49;;;;;;;4.28;1.52;;;15.40;97.60;;;;;;5419048;26;20276;-67
2024/04/10 11:09:15;;;;;;;3.17;1.40;;;15.60;99.10;;;;;;5419092;26;20234;-67
2024/04/10 11:11:45;;;;;;;3.17;1.30;;;15.30;95.80;;;;;;5419225;26;20234;-67
2024/04/10 11:14:13;;;;;;;4.45;1.67;;;15.00;97.30;;;;;;5419228;26;20225;-67
2024/04/10 11:16:44;;;;;;;4.30;1.40;;;15.00;97.00;;;;;;5418924;26;20606;-67
2024/04/10 11:19:11;;;;;;;2.35;1.27;;;15.00;95.60;;;;;;5418788;26;20213;-67
2024/04/10 11:21:39;;;;;;;3.33;1.40;;;15.20;93.80;;;;;;5418623;26;20318;-67
2024/04/10 11:24:05;;;;;;;2.70;1.42;;;15.40;93.20;;;;;;5418857;26;20229;-66
2024/04/10 11:26:34;;;;;;;5.82;1.60;;;15.50;92.30;;;;;;5418859;26;20237;-68
2024/04/10 11:29:02;;;;;;;1.73;1.10;;;16.10;93.20;;;;;;5419279;26;20217;-68
2024/04/10 11:31:28;;;;;;;3.50;1.58;;;16.10;94.20;;;;;;5418190;26;20233;-68
2024/04/10 11:33:59;;;;;;;6.40;1.70;;;16.10;91.70;;;;;;5419438;26;20225;-68
2024/04/10 11:36:25;;;;;;;2.22;1.20;;;15.90;91.80;;;;;;5419848;26;20213;-68
2024/04/10 11:38:54;;;;;;;3.97;1.33;;;15.30;92.50;;;;;;5419364;26;20234;-67
2024/04/10 11:41:20;;;;;;;2.75;1.40;;;15.00;93.80;;;;;;5418199;26;20260;-68
2024/04/10 11:43:48;;;;;;;3.95;1.45;;;14.90;94.90;;;;;;5419058;26;20225;-68
2024/04/10 11:46:14;;;;;;;4.60;1.48;;;14.70;96.50;;;;;;5417508;26;20225;-68
2024/04/10 11:48:43;;;;;;;3.92;1.50;;;14.80;96.30;;;;;;5418764;26;20229;-68
2024/04/10 11:51:15;;;;;;;5.00;1.60;;;14.40;93.80;;;;;;5418713;26;20256;-68
2024/04/10 11:53:43;;;;;;;4.35;1.48;;;14.60;94.00;;;;;;5419370;26;20225;-68
2024/04/10 11:56:09;;;;;;;2.22;1.05;;;14.90;96.10;;;;;;5419215;26;20252;-67
2024/04/10 11:58:40;;;;;;;2.83;1.30;;;16.40;97.00;;;;;;5418966;26;20225;-67
2024/04/10 12:01:06;;;;;;;4.53;1.67;;;17.90;92.40;;;;;;5419214;26;20228;-67
2024/04/10 12:03:35;;;;;;;3.63;1.60;;;17.20;90.30;;;;;;5418964;26;20323;-67
2024/04/10 12:06:04;;;;;;;3.20;1.20;;;15.70;90.50;;;;;;5418714;26;20709;-67
2024/04/10 12:08:36;;;;;;;4.80;1.40;;;15.00;90.20;;;;;;5418507;26;20334;-68
2024/04/10 12:11:04;;;;;;;3.35;1.30;;;16.50;91.60;;;;;;5418910;26;20322;-68
2024/04/10 12:13:37;;;;;;;5.32;1.92;;;17.00;87.70;;;;;;5418387;26;20270;-68
2024/04/10 12:16:04;;;;;;;3.80;1.58;;;17.40;85.60;;;;;;5418435;26;20267;-68
2024/04/10 12:18:33;;;;;;;2.75;1.60;;;18.10;88.40;;;;;;5418873;26;20272;-68
2024/04/10 12:20:59;;;;;;;3.10;1.33;;;19.30;83.00;;;;;;5418246;26;20245;-68
2024/04/10 12:23:28;;;;;;;6.68;1.58;;;20.20;86.60;;;;;;5418281;26;20255;-68
2024/04/10 12:25:58;;;;;;;5.72;1.60;;;21.10;79.80;;;;;;5417806;26;20318;-68
2024/04/10 12:28:26;;;;;;;2.90;1.05;;;22.50;73.00;;;;;;5417560;26;20354;-68
2024/04/10 12:30:53;;;;;;;3.05;1.10;;;23.20;66.60;;;;;;5417870;26;20263;-69
2024/04/10 12:33:23;;;;;;;5.22;1.45;;;23.30;54.00;;;;;;5418822;26;20272;-67
2024/04/10 12:38:36;;;;;;;5.28;1.48;;;21.70;50.10;;;;;;5421076;26;20267;-67
2024/04/10 12:41:08;;;;;;;3.88;1.23;;;21.70;50.90;;;;;;5417939;26;20241;-68
2024/04/10 12:43:40;;;;;;;2.90;1.50;;;23.20;50.10;;;;;;5418038;26;20289;-68
2024/04/10 12:46:09;;;;;;;3.20;1.10;;;22.70;47.20;;;;;;5417451;26;20217;-66
2024/04/10 12:48:35;;;;;;;4.70;0.95;;;23.40;44.50;;;;;;5417637;26;20225;-66
2024/04/10 12:51:04;;;;;;;3.88;1.33;;;23.20;36.60;;;;;;5417432;26;20241;-67
2024/04/10 12:53:31;;;;;;;2.30;1.13;;;22.70;34.50;;;;;;5417914;26;20592;-67
2024/04/10 12:56:00;;;;;;;2.47;1.00;;;22.60;36.60;;;;;;5418257;26;20326;-67
2024/04/10 12:58:29;;;;;;;4.30;1.30;;;22.30;33.10;;;;;;5421330;26;20229;-66
2024/04/10 13:00:58;;;;;;;7.53;1.67;;;22.40;32.50;;;;;;5421554;26;20260;-66
2024/04/10 13:03:24;;;;;;;2.85;1.30;;;22.00;30.70;;;;;;5421175;26;20221;-67
2024/04/10 13:05:57;;;;;;;3.63;1.20;;;22.40;33.10;;;;;;5421272;26;20230;-66
2024/04/10 13:08:24;;;;;;;5.07;1.30;;;23.00;29.60;;;;;;5421126;26;20335;-66